sensor_id;sensor_type;location;lat;lon;timestamp;pressure;altitude;pressure_sealevel;temperature;humidity
48386;BME280;34644;47.964;7.982;2023-02-13T00:03:48;98329.78;;;15.73;50.53
48386;BME280;34644;47.964;7.982;2023-02-13T00:10:48;98312.22;;;15.72;50.67
48386;BME280;34644;47.964;7.982;2023-02-13T00:17:48;98327.94;;;15.74;50.83
48386;BME280;34644;47.964;7.982;2023-02-13T00:24:49;98322.63;;;15.74;51.02
48386;BME280;34644;47.964;7.982;2023-02-13T00:31:49;98324.47;;;15.73;51.00
48386;BME280;34644;47.964;7.982;2023-02-13T00:38:49;98328.75;;;15.74;51.16
48386;BME280;34644;47.964;7.982;2023-02-13T00:45:50;98340.22;;;15.75;50.97
48386;BME280;34644;47.964;7.982;2023-02-13T00:52:50;98343.88;;;15.74;50.90
48386;BME280;34644;47.964;7.982;2023-02-13T00:59:50;98342.88;;;15.75;50.94
48386;BME280;34644;47.964;7.982;2023-02-13T01:06:51;98346.78;;;15.72;50.87
48386;BME280;34644;47.964;7.982;2023-02-13T01:13:51;98352.31;;;15.71;51.07
48386;BME280;34644;47.964;7.982;2023-02-13T01:20:54;98348.03;;;15.70;50.84
48386;BME280;34644;47.964;7.982;2023-02-13T01:27:56;98342.47;;;15.71;50.79
48386;BME280;34644;47.964;7.982;2023-02-13T01:34:56;98342.69;;;15.70;50.97
48386;BME280;34644;47.964;7.982;2023-02-13T01:41:56;98342.34;;;15.66;51.24
48386;BME280;34644;47.964;7.982;2023-02-13T01:48:58;98351.13;;;15.67;51.14
48386;BME280;34644;47.964;7.982;2023-02-13T01:56:04;98346.03;;;15.65;51.29
48386;BME280;34644;47.964;7.982;2023-02-13T02:03:11;98345.81;;;15.67;51.12
48386;BME280;34644;47.964;7.982;2023-02-13T02:10:15;98339.47;;;15.68;51.13
48386;BME280;34644;47.964;7.982;2023-02-13T02:17:16;98341.09;;;15.69;51.05
48386;BME280;34644;47.964;7.982;2023-02-13T03:00:17;98326.97;;;15.68;51.20
48386;BME280;34644;47.964;7.982;2023-02-13T03:07:37;98327.19;;;15.67;51.39
48386;BME280;34644;47.964;7.982;2023-02-13T03:14:37;98328.03;;;15.67;51.32
48386;BME280;34644;47.964;7.982;2023-02-13T03:21:47;98338.28;;;15.64;51.48
48386;BME280;34644;47.964;7.982;2023-02-13T03:44:09;98340.00;;;15.58;51.57
48386;BME280;34644;47.964;7.982;2023-02-13T03:51:12;98343.09;;;15.55;51.68
48386;BME280;34644;47.964;7.982;2023-02-13T03:58:18;98331.66;;;15.54;51.76
48386;BME280;34644;47.964;7.982;2023-02-13T04:05:40;98343.75;;;15.50;51.83
48386;BME280;34644;47.964;7.982;2023-02-13T04:12:48;98354.41;;;15.50;52.03
48386;BME280;34644;47.964;7.982;2023-02-13T04:19:49;98354.41;;;15.50;52.16
48386;BME280;34644;47.964;7.982;2023-02-13T04:26:50;98356.47;;;15.48;51.95
48386;BME280;34644;47.964;7.982;2023-02-13T04:33:51;98354.41;;;15.50;52.00
48386;BME280;34644;47.964;7.982;2023-02-13T04:40:51;98354.88;;;15.59;51.77
48386;BME280;34644;47.964;7.982;2023-02-13T04:47:54;98347.00;;;15.71;51.74
48386;BME280;34644;47.964;7.982;2023-02-13T04:54:56;98354.91;;;15.41;48.07
48386;BME280;34644;47.964;7.982;2023-02-13T05:01:56;98355.88;;;15.83;48.41
48386;BME280;34644;47.964;7.982;2023-02-13T05:08:58;98359.16;;;16.27;48.45
48386;BME280;34644;47.964;7.982;2023-02-13T05:15:58;98362.63;;;16.28;49.15
48386;BME280;34644;47.964;7.982;2023-02-13T05:22:58;98369.78;;;16.27;49.28
48386;BME280;34644;47.964;7.982;2023-02-13T05:30:17;98372.81;;;16.43;49.98
48386;BME280;34644;47.964;7.982;2023-02-13T05:37:17;98368.31;;;16.43;50.46
48386;BME280;34644;47.964;7.982;2023-02-13T05:44:18;98376.91;;;15.85;49.14
48386;BME280;34644;47.964;7.982;2023-02-13T05:51:18;98378.38;;;15.62;47.51
48386;BME280;34644;47.964;7.982;2023-02-13T05:58:19;98383.75;;;15.74;48.45
48386;BME280;34644;47.964;7.982;2023-02-13T06:05:19;98386.91;;;16.01;48.65
48386;BME280;34644;47.964;7.982;2023-02-13T06:12:20;98387.34;;;16.17;48.74
48386;BME280;34644;47.964;7.982;2023-02-13T06:19:20;98395.31;;;16.17;49.07
48386;BME280;34644;47.964;7.982;2023-02-13T06:26:20;98393.69;;;16.16;49.49
48386;BME280;34644;47.964;7.982;2023-02-13T06:33:20;98398.88;;;16.10;49.85
48386;BME280;34644;47.964;7.982;2023-02-13T06:40:21;98398.75;;;16.05;50.16
48386;BME280;34644;47.964;7.982;2023-02-13T06:47:21;98399.41;;;16.01;50.24
48386;BME280;34644;47.964;7.982;2023-02-13T06:54:21;98399.28;;;15.96;50.46
48386;BME280;34644;47.964;7.982;2023-02-13T07:01:21;98397.06;;;15.93;50.56
48386;BME280;34644;47.964;7.982;2023-02-13T07:08:22;98395.13;;;16.00;50.66
48386;BME280;34644;47.964;7.982;2023-02-13T07:15:22;98394.53;;;16.28;50.18
48386;BME280;34644;47.964;7.982;2023-02-13T07:22:22;98401.75;;;16.39;50.01
48386;BME280;34644;47.964;7.982;2023-02-13T07:29:22;98410.34;;;16.53;49.85
48386;BME280;34644;47.964;7.982;2023-02-13T07:36:23;98416.69;;;16.52;49.89
48386;BME280;34644;47.964;7.982;2023-02-13T07:43:23;98425.13;;;16.49;50.16
48386;BME280;34644;47.964;7.982;2023-02-13T07:50:24;98416.56;;;16.47;50.19
48386;BME280;34644;47.964;7.982;2023-02-13T07:57:24;98412.56;;;16.56;50.05
48386;BME280;34644;47.964;7.982;2023-02-13T08:04:24;98400.78;;;16.64;49.96
48386;BME280;34644;47.964;7.982;2023-02-13T08:11:26;98407.16;;;16.75;49.83
48386;BME280;34644;47.964;7.982;2023-02-13T08:18:46;98398.31;;;17.05;49.45
48386;BME280;34644;47.964;7.982;2023-02-13T08:25:46;98416.13;;;17.28;49.03
48386;BME280;34644;47.964;7.982;2023-02-13T08:32:48;98415.31;;;17.39;48.84
48386;BME280;34644;47.964;7.982;2023-02-13T08:39:48;98422.69;;;17.49;48.66
48386;BME280;34644;47.964;7.982;2023-02-13T08:46:48;98408.19;;;17.57;48.72
48386;BME280;34644;47.964;7.982;2023-02-13T08:53:49;98420.03;;;17.61;48.69
48386;BME280;34644;47.964;7.982;2023-02-13T09:00:49;98415.13;;;17.69;48.71
48386;BME280;34644;47.964;7.982;2023-02-13T09:07:49;98411.28;;;17.77;48.73
48386;BME280;34644;47.964;7.982;2023-02-13T09:14:49;98415.84;;;17.88;48.61
48386;BME280;34644;47.964;7.982;2023-02-13T09:21:51;98408.81;;;17.99;48.47
48386;BME280;34644;47.964;7.982;2023-02-13T09:28:51;98408.00;;;18.11;48.51
48386;BME280;34644;47.964;7.982;2023-02-13T09:35:51;98414.91;;;18.23;48.40
48386;BME280;34644;47.964;7.982;2023-02-13T09:42:52;98410.28;;;18.36;48.26
48386;BME280;34644;47.964;7.982;2023-02-13T09:49:57;98405.16;;;18.46;48.36
48386;BME280;34644;47.964;7.982;2023-02-13T09:57:06;98409.13;;;18.60;48.24
48386;BME280;34644;47.964;7.982;2023-02-13T10:18:48;98395.81;;;18.94;48.34
48386;BME280;34644;47.964;7.982;2023-02-13T10:33:06;98380.41;;;19.19;48.10
48386;BME280;34644;47.964;7.982;2023-02-13T10:40:19;98366.59;;;19.27;48.10
48386;BME280;34644;47.964;7.982;2023-02-13T10:47:28;98358.75;;;19.37;48.21
48386;BME280;34644;47.964;7.982;2023-02-13T10:54:53;98357.22;;;19.46;48.38
48386;BME280;34644;47.964;7.982;2023-02-13T11:01:58;98350.63;;;19.54;48.17
48386;BME280;34644;47.964;7.982;2023-02-13T11:09:01;98342.75;;;19.64;48.12
48386;BME280;34644;47.964;7.982;2023-02-13T11:16:03;98344.72;;;19.74;48.21
48386;BME280;34644;47.964;7.982;2023-02-13T11:23:16;98348.38;;;19.85;47.85
48386;BME280;34644;47.964;7.982;2023-02-13T11:30:33;98334.53;;;19.93;48.18
48386;BME280;34644;47.964;7.982;2023-02-13T11:37:34;98337.00;;;20.00;47.83
48386;BME280;34644;47.964;7.982;2023-02-13T11:44:34;98327.41;;;20.04;48.01
48386;BME280;34644;47.964;7.982;2023-02-13T11:51:39;98330.16;;;20.14;47.95
48386;BME280;34644;47.964;7.982;2023-02-13T11:58:40;98325.44;;;20.21;47.91
48386;BME280;34644;47.964;7.982;2023-02-13T12:05:41;98320.63;;;20.23;47.91
48386;BME280;34644;47.964;7.982;2023-02-13T12:12:41;98316.13;;;20.29;47.86
48386;BME280;34644;47.964;7.982;2023-02-13T12:19:44;98315.63;;;20.32;48.38
48386;BME280;34644;47.964;7.982;2023-02-13T12:26:56;98309.50;;;20.37;48.20
48386;BME280;34644;47.964;7.982;2023-02-13T13:17:00;98304.50;;;20.51;48.27
48386;BME280;34644;47.964;7.982;2023-02-13T13:31:23;98300.53;;;20.53;48.27
48386;BME280;34644;47.964;7.982;2023-02-13T13:38:31;98300.53;;;20.53;48.46
48386;BME280;34644;47.964;7.982;2023-02-13T13:45:41;98297.84;;;20.53;48.45
48386;BME280;34644;47.964;7.982;2023-02-13T14:00:26;98294.38;;;20.53;48.66
48386;BME280;34644;47.964;7.982;2023-02-13T14:07:32;98295.66;;;20.50;48.50
48386;BME280;34644;47.964;7.982;2023-02-13T14:21:33;98284.41;;;20.48;48.73
48386;BME280;34644;47.964;7.982;2023-02-13T14:28:33;98287.59;;;20.45;48.92
48386;BME280;34644;47.964;7.982;2023-02-13T14:35:34;98293.44;;;20.37;48.87
48386;BME280;34644;47.964;7.982;2023-02-13T14:42:36;98281.22;;;20.19;46.93
48386;BME280;34644;47.964;7.982;2023-02-13T14:49:37;98284.09;;;20.07;46.37
48386;BME280;34644;47.964;7.982;2023-02-13T14:56:39;98281.31;;;19.97;45.63
48386;BME280;34644;47.964;7.982;2023-02-13T15:03:45;98280.16;;;19.87;45.52
48386;BME280;34644;47.964;7.982;2023-02-13T15:10:48;98270.41;;;19.76;45.13
48386;BME280;34644;47.964;7.982;2023-02-13T15:17:49;98283.66;;;19.66;45.02
48386;BME280;34644;47.964;7.982;2023-02-13T15:24:51;98280.63;;;19.35;46.19
48386;BME280;34644;47.964;7.982;2023-02-13T15:31:51;98274.78;;;19.16;46.53
48386;BME280;34644;47.964;7.982;2023-02-13T15:38:58;98279.38;;;18.98;45.77
48386;BME280;34644;47.964;7.982;2023-02-13T15:46:07;98274.66;;;18.50;48.05
48386;BME280;34644;47.964;7.982;2023-02-13T15:53:17;98280.81;;;18.33;47.72
48386;BME280;34644;47.964;7.982;2023-02-13T16:00:24;98282.66;;;18.16;47.64
48386;BME280;34644;47.964;7.982;2023-02-13T16:07:26;98274.88;;;17.97;46.93
48386;BME280;34644;47.964;7.982;2023-02-13T16:14:27;98271.66;;;17.95;47.09
48386;BME280;34644;47.964;7.982;2023-02-13T16:21:29;98267.16;;;17.84;46.96
48386;BME280;34644;47.964;7.982;2023-02-13T16:28:30;98265.09;;;17.74;46.50
48386;BME280;34644;47.964;7.982;2023-02-13T16:35:31;98274.78;;;17.63;46.37
48386;BME280;34644;47.964;7.982;2023-02-13T16:42:34;98274.03;;;17.51;45.83
48386;BME280;34644;47.964;7.982;2023-02-13T16:49:35;98277.63;;;17.45;45.27
48386;BME280;34644;47.964;7.982;2023-02-13T16:56:37;98287.84;;;17.36;45.23
48386;BME280;34644;47.964;7.982;2023-02-13T17:03:38;98283.19;;;17.43;46.30
48386;BME280;34644;47.964;7.982;2023-02-13T17:10:39;98291.16;;;17.55;48.55
48386;BME280;34644;47.964;7.982;2023-02-13T17:17:40;98291.63;;;15.98;43.42
48386;BME280;34644;47.964;7.982;2023-02-13T17:24:41;98298.44;;;16.60;46.76
48386;BME280;34644;47.964;7.982;2023-02-13T17:31:41;98309.00;;;16.90;48.61
48386;BME280;34644;47.964;7.982;2023-02-13T17:38:41;98320.13;;;16.99;49.98
48386;BME280;34644;47.964;7.982;2023-02-13T17:45:42;98316.19;;;17.02;50.92
48386;BME280;34644;47.964;7.982;2023-02-13T17:52:45;98319.66;;;17.02;52.00
48386;BME280;34644;47.964;7.982;2023-02-13T17:59:46;98320.81;;;15.56;45.31
48386;BME280;34644;47.964;7.982;2023-02-13T18:06:50;98323.97;;;16.25;47.56
48386;BME280;34644;47.964;7.982;2023-02-13T18:13:50;98324.59;;;16.51;50.50
48386;BME280;34644;47.964;7.982;2023-02-13T18:20:54;98318.13;;;16.59;51.31
48386;BME280;34644;47.964;7.982;2023-02-13T18:27:55;98321.38;;;16.61;52.73
48386;BME280;34644;47.964;7.982;2023-02-13T18:34:55;98325.66;;;16.62;54.22
48386;BME280;34644;47.964;7.982;2023-02-13T18:41:55;98315.81;;;16.62;54.50
48386;BME280;34644;47.964;7.982;2023-02-13T18:48:55;98318.72;;;16.61;55.64
48386;BME280;34644;47.964;7.982;2023-02-13T18:56:02;98323.22;;;16.60;56.39
48386;BME280;34644;47.964;7.982;2023-02-13T19:03:03;98319.50;;;16.61;56.88
48386;BME280;34644;47.964;7.982;2023-02-13T19:10:03;98314.41;;;16.60;57.25
48386;BME280;34644;47.964;7.982;2023-02-13T19:17:04;98333.28;;;16.58;57.89
48386;BME280;34644;47.964;7.982;2023-02-13T19:24:07;98328.19;;;16.57;57.99
48386;BME280;34644;47.964;7.982;2023-02-13T19:31:09;98333.28;;;16.58;57.87
48386;BME280;34644;47.964;7.982;2023-02-13T19:38:10;98323.69;;;16.57;57.48
48386;BME280;34644;47.964;7.982;2023-02-13T19:45:10;98329.25;;;16.56;58.48
48386;BME280;34644;47.964;7.982;2023-02-13T19:52:10;98326.59;;;16.56;57.64
48386;BME280;34644;47.964;7.982;2023-02-13T19:59:11;98325.97;;;16.54;57.97
48386;BME280;34644;47.964;7.982;2023-02-13T20:06:13;98324.38;;;16.53;57.81
48386;BME280;34644;47.964;7.982;2023-02-13T20:13:14;98331.31;;;16.54;57.10
48386;BME280;34644;47.964;7.982;2023-02-13T20:20:14;98332.59;;;16.51;57.65
48386;BME280;34644;47.964;7.982;2023-02-13T20:27:14;98324.59;;;16.51;56.96
48386;BME280;34644;47.964;7.982;2023-02-13T20:34:15;98332.00;;;16.49;56.99
48386;BME280;34644;47.964;7.982;2023-02-13T20:41:16;98323.19;;;16.49;57.19
48386;BME280;34644;47.964;7.982;2023-02-13T20:48:17;98319.75;;;16.48;57.22
48386;BME280;34644;47.964;7.982;2023-02-13T20:55:17;98317.53;;;16.45;56.97
48386;BME280;34644;47.964;7.982;2023-02-13T21:02:17;98334.31;;;16.45;56.64
48386;BME280;34644;47.964;7.982;2023-02-13T21:09:19;98330.25;;;16.43;57.03
48386;BME280;34644;47.964;7.982;2023-02-13T21:16:21;98339.28;;;16.42;57.01
48386;BME280;34644;47.964;7.982;2023-02-13T21:23:22;98329.75;;;15.92;52.80
48386;BME280;34644;47.964;7.982;2023-02-13T21:30:22;98327.94;;;15.74;51.78
48386;BME280;34644;47.964;7.982;2023-02-13T21:37:22;98335.25;;;15.60;50.88
48386;BME280;34644;47.964;7.982;2023-02-13T21:44:22;98335.00;;;15.31;49.02
48386;BME280;34644;47.964;7.982;2023-02-13T21:51:23;98318.34;;;15.73;51.73
48386;BME280;34644;47.964;7.982;2023-02-13T21:58:24;98318.44;;;15.85;53.75
48386;BME280;34644;47.964;7.982;2023-02-13T22:05:26;98328.97;;;15.91;53.67
48386;BME280;34644;47.964;7.982;2023-02-13T22:12:26;98319.50;;;15.96;54.08
48386;BME280;34644;47.964;7.982;2023-02-13T22:19:27;98320.09;;;15.98;54.31
48386;BME280;34644;47.964;7.982;2023-02-13T22:26:28;98324.38;;;15.99;54.46
48386;BME280;34644;47.964;7.982;2023-02-13T22:33:29;98326.56;;;16.02;54.62
48386;BME280;34644;47.964;7.982;2023-02-13T22:40:29;98334.53;;;16.02;54.65
48386;BME280;34644;47.964;7.982;2023-02-13T22:47:29;98330.84;;;16.03;54.78
48386;BME280;34644;47.964;7.982;2023-02-13T22:54:29;98328.75;;;16.05;55.00
48386;BME280;34644;47.964;7.982;2023-02-13T23:01:30;98330.63;;;16.04;55.05
48386;BME280;34644;47.964;7.982;2023-02-13T23:08:30;98327.97;;;16.04;55.23
48386;BME280;34644;47.964;7.982;2023-02-13T23:15:30;98333.84;;;16.06;55.28
48386;BME280;34644;47.964;7.982;2023-02-13T23:22:31;98328.53;;;16.06;55.25
48386;BME280;34644;47.964;7.982;2023-02-13T23:29:32;98327.97;;;16.04;55.55
48386;BME280;34644;47.964;7.982;2023-02-13T23:36:32;98329.00;;;16.03;55.58
48386;BME280;34644;47.964;7.982;2023-02-13T23:43:33;98329.22;;;16.02;55.60
48386;BME280;34644;47.964;7.982;2023-02-13T23:50:33;98323.31;;;16.00;55.63
48386;BME280;34644;47.964;7.982;2023-02-13T23:57:33;98313.75;;;15.99;55.88
